Time;durP1;ratioP1;P1;durP2;ratioP2;P2;SDS_P1;SDS_P2;PMS_P1;PMS_P2;Temp;Humidity;BMP_temperature;BMP_pressure;BME280_temperature;BME280_humidity;BME280_pressure;Samples;Min_cycle;Max_cycle;Signal;HPM_P1;HPM_P2
2022/09/26 00:01:50;;;;;;;0.60;0.60;;;10.70;99.90;;;;;;5094705;28;20178;-74
2022/09/26 00:04:19;;;;;;;0.50;0.50;;;10.70;99.90;;;;;;5095767;28;20187;-74
2022/09/26 00:06:45;;;;;;;0.60;0.60;;;10.60;99.90;;;;;;5096303;28;20174;-74
2022/09/26 00:09:11;;;;;;;0.50;0.50;;;10.60;99.90;;;;;;5095402;28;20194;-74
2022/09/26 00:11:37;;;;;;;0.40;0.40;;;10.50;99.90;;;;;;5096277;28;20205;-73
2022/09/26 00:14:07;;;;;;;0.60;0.60;;;10.50;99.90;;;;;;5094103;28;20276;-74
2022/09/26 00:16:33;;;;;;;0.77;0.77;;;10.40;99.90;;;;;;5093931;28;20702;-74
2022/09/26 00:18:59;;;;;;;0.50;0.50;;;10.30;99.90;;;;;;5093406;28;20236;-74
2022/09/26 00:21:26;;;;;;;0.53;0.53;;;10.30;99.90;;;;;;5093844;28;20300;-74
2022/09/26 00:23:53;;;;;;;0.40;0.40;;;10.20;99.90;;;;;;5094047;28;20170;-74
2022/09/26 00:26:21;;;;;;;0.53;0.53;;;10.20;99.90;;;;;;5120782;22;20671;-82
2022/09/26 00:28:47;;;;;;;0.50;0.50;;;10.10;99.90;;;;;;5098674;28;20278;-81
2022/09/26 00:31:17;;;;;;;0.50;0.50;;;10.20;99.90;;;;;;5099542;28;20646;-82
2022/09/26 00:33:43;;;;;;;0.50;0.50;;;10.10;99.90;;;;;;5099726;28;20166;-81
2022/09/26 00:36:09;;;;;;;0.50;0.50;;;10.10;99.90;;;;;;5099934;28;20201;-81
2022/09/26 00:38:35;;;;;;;0.60;0.60;;;10.00;99.90;;;;;;5105640;28;20214;-78
2022/09/26 00:41:03;;;;;;;0.60;0.60;;;10.00;99.90;;;;;;5118394;28;20237;-78
2022/09/26 00:43:33;;;;;;;0.60;0.60;;;10.00;99.90;;;;;;5115001;28;20299;-78
2022/09/26 00:46:16;;;;;;;0.50;0.50;;;9.90;99.90;;;;;;5117397;28;20193;-78
2022/09/26 00:48:43;;;;;;;0.60;0.60;;;10.00;99.90;;;;;;5115438;28;20181;-79
2022/09/26 00:51:10;;;;;;;0.40;0.40;;;10.00;99.90;;;;;;5116231;28;20185;-78
2022/09/26 00:53:40;;;;;;;0.40;0.40;;;10.00;99.90;;;;;;5117272;28;20188;-78
2022/09/26 00:56:18;;;;;;;0.47;0.47;;;10.10;99.90;;;;;;5097609;28;20260;-79
2022/09/26 00:59:01;;;;;;;0.43;0.43;;;10.00;99.90;;;;;;5095030;28;20225;-79
2022/09/26 01:01:27;;;;;;;0.50;0.50;;;10.00;99.90;;;;;;5096721;28;20174;-79
2022/09/26 01:03:53;;;;;;;0.50;0.50;;;10.00;99.90;;;;;;5098316;28;20264;-79
2022/09/26 01:06:20;;;;;;;0.50;0.50;;;9.90;99.90;;;;;;5097086;28;20528;-77
2022/09/26 01:09:07;;;;;;;0.50;0.50;;;9.90;99.90;;;;;;5097577;28;20202;-79
2022/09/26 01:11:34;;;;;;;0.53;0.53;;;9.90;99.90;;;;;;5098766;28;20169;-78
2022/09/26 01:14:00;;;;;;;0.50;0.50;;;9.90;99.90;;;;;;5097231;28;20205;-80
2022/09/26 01:16:26;;;;;;;0.57;0.57;;;9.90;99.90;;;;;;5094485;28;20661;-79
2022/09/26 01:18:52;;;;;;;0.50;0.50;;;9.90;99.90;;;;;;5093914;28;20236;-79
2022/09/26 01:21:23;;;;;;;0.50;0.50;;;9.90;99.90;;;;;;5094800;28;20182;-79
2022/09/26 01:24:23;;;;;;;0.50;0.50;;;9.90;99.90;;;;;;5094916;28;20216;-80
2022/09/26 01:26:54;;;;;;;0.43;0.43;;;9.80;99.90;;;;;;5094721;28;20226;-80
2022/09/26 01:29:49;;;;;;;0.43;0.43;;;9.70;99.90;;;;;;5093813;28;20194;-79
2022/09/26 01:32:52;;;;;;;0.50;0.50;;;9.60;99.90;;;;;;5094231;28;20240;-80
2022/09/26 01:35:42;;;;;;;0.43;0.43;;;9.40;99.90;;;;;;5094558;28;20177;-80
2022/09/26 01:38:23;;;;;;;0.40;0.40;;;9.30;99.90;;;;;;5094570;28;20217;-79
2022/09/26 01:41:23;;;;;;;0.50;0.50;;;9.20;99.90;;;;;;5095350;28;20170;-79
2022/09/26 01:44:05;;;;;;;0.53;0.53;;;9.00;99.90;;;;;;5095217;28;20213;-82
2022/09/26 01:46:37;;;;;;;0.50;0.50;;;9.00;99.90;;;;;;5094829;28;20174;-80
2022/09/26 01:49:32;;;;;;;0.50;0.50;;;8.80;99.90;;;;;;5094367;28;20218;-79
2022/09/26 01:52:13;;;;;;;0.50;0.50;;;8.80;99.90;;;;;;5094847;28;20380;-81
2022/09/26 01:54:52;;;;;;;0.50;0.50;;;8.80;99.90;;;;;;5093869;28;20223;-82
2022/09/26 01:57:25;;;;;;;0.60;0.60;;;8.90;99.90;;;;;;5093683;28;20260;-80
2022/09/26 01:59:56;;;;;;;0.60;0.60;;;9.00;99.90;;;;;;5094947;28;20186;-80
2022/09/26 02:02:26;;;;;;;0.60;0.60;;;9.00;99.90;;;;;;5118033;28;20170;-79
2022/09/26 02:04:58;;;;;;;0.50;0.50;;;9.00;99.90;;;;;;5118510;28;20196;-79
2022/09/26 02:07:40;;;;;;;0.50;0.50;;;9.00;99.90;;;;;;5117890;28;20173;-79
2022/09/26 02:10:24;;;;;;;0.60;0.60;;;9.00;99.90;;;;;;5118032;28;20216;-79
2022/09/26 02:12:56;;;;;;;0.70;0.70;;;8.90;99.90;;;;;;5118122;28;20170;-80
2022/09/26 02:15:25;;;;;;;0.60;0.60;;;8.80;99.90;;;;;;5112901;28;20185;-81
2022/09/26 02:18:01;;;;;;;0.63;0.63;;;8.70;99.90;;;;;;5096285;28;20217;-81
2022/09/26 02:20:33;;;;;;;0.67;0.67;;;8.50;99.90;;;;;;5097000;28;20174;-81
2022/09/26 02:23:02;;;;;;;0.60;0.60;;;8.40;99.90;;;;;;5096663;28;20223;-81
2022/09/26 02:25:28;;;;;;;0.60;0.60;;;8.40;99.90;;;;;;5096188;28;20556;-82
2022/09/26 02:27:54;;;;;;;0.60;0.60;;;8.40;99.90;;;;;;5094817;28;20197;-81
2022/09/26 02:30:20;;;;;;;0.50;0.50;;;8.50;99.90;;;;;;5095613;28;20200;-81
2022/09/26 02:32:45;;;;;;;0.70;0.70;;;8.60;99.90;;;;;;5096653;28;20178;-81
2022/09/26 02:37:55;;;;;;;0.50;0.50;;;8.60;99.90;;;;;;5096761;28;20255;-81
2022/09/26 02:40:35;;;;;;;0.60;0.60;;;8.60;99.90;;;;;;5097102;28;20170;-81
2022/09/26 02:43:27;;;;;;;0.60;0.60;;;8.60;99.90;;;;;;5095750;28;20180;-81
2022/09/26 02:46:09;;;;;;;0.63;0.63;;;8.60;99.90;;;;;;5095068;28;20174;-81
2022/09/26 02:48:39;;;;;;;0.53;0.53;;;8.60;99.90;;;;;;5093610;28;20198;-81
2022/09/26 02:51:25;;;;;;;0.50;0.50;;;8.60;99.90;;;;;;5093873;28;20213;-81
2022/09/26 02:54:30;;;;;;;0.60;0.60;;;8.70;99.90;;;;;;5093618;28;20178;-82
2022/09/26 02:57:04;;;;;;;0.60;0.60;;;8.70;99.90;;;;;;5094611;28;20193;-81
2022/09/26 02:59:52;;;;;;;0.60;0.60;;;8.70;99.90;;;;;;5093583;28;20254;-80
2022/09/26 03:02:30;;;;;;;0.60;0.60;;;8.70;99.90;;;;;;5093824;28;20247;-81
2022/09/26 03:05:07;;;;;;;0.60;0.60;;;8.70;99.90;;;;;;5093656;28;20180;-80
2022/09/26 03:07:38;;;;;;;0.60;0.60;;;8.70;99.90;;;;;;5093141;28;20642;-80
2022/09/26 03:10:07;;;;;;;0.70;0.70;;;8.70;99.90;;;;;;5093382;28;20216;-80
2022/09/26 03:12:34;;;;;;;0.60;0.60;;;8.80;99.90;;;;;;5092665;28;20204;-82
2022/09/26 03:15:03;;;;;;;0.60;0.60;;;8.80;99.90;;;;;;5093042;28;20560;-80
2022/09/26 03:17:33;;;;;;;0.60;0.60;;;8.80;99.90;;;;;;5092801;28;20181;-80
2022/09/26 03:20:13;;;;;;;0.60;0.60;;;8.90;99.90;;;;;;5094327;28;20564;-80
2022/09/26 03:22:41;;;;;;;0.60;0.60;;;8.90;99.90;;;;;;5097378;28;20637;-80
2022/09/26 03:25:10;;;;;;;0.53;0.53;;;9.00;99.90;;;;;;5098495;28;20231;-80
2022/09/26 03:27:42;;;;;;;0.67;0.67;;;9.00;99.90;;;;;;5097492;28;20189;-81
2022/09/26 03:30:09;;;;;;;0.53;0.53;;;9.00;99.90;;;;;;5097456;28;20189;-81
2022/09/26 03:32:36;;;;;;;0.50;0.50;;;9.00;99.90;;;;;;5096425;28;20276;-80
2022/09/26 03:35:02;;;;;;;0.50;0.50;;;9.00;99.90;;;;;;5097703;28;20239;-81
2022/09/26 03:37:27;;;;;;;0.60;0.60;;;9.00;99.90;;;;;;5097384;28;20177;-81
2022/09/26 03:39:53;;;;;;;0.70;0.70;;;9.00;99.90;;;;;;5097850;28;20178;-83
2022/09/26 03:42:19;;;;;;;0.50;0.50;;;9.00;99.90;;;;;;5097359;28;20174;-82
2022/09/26 03:44:44;;;;;;;0.73;0.73;;;9.00;99.90;;;;;;5097554;28;20182;-82
2022/09/26 03:47:10;;;;;;;0.70;0.70;;;9.10;99.90;;;;;;5098161;28;20666;-82
2022/09/26 03:49:36;;;;;;;0.60;0.60;;;9.10;99.90;;;;;;5097232;28;20189;-82
2022/09/26 03:52:02;;;;;;;0.50;0.50;;;9.10;99.90;;;;;;5099247;28;20185;-82
2022/09/26 03:54:28;;;;;;;0.60;0.60;;;9.10;99.90;;;;;;5099216;28;20775;-82
2022/09/26 03:56:54;;;;;;;0.60;0.60;;;9.10;99.90;;;;;;5097928;28;20535;-82
2022/09/26 03:59:20;;;;;;;0.53;0.53;;;9.10;99.90;;;;;;5096625;28;20217;-83
2022/09/26 04:01:46;;;;;;;0.70;0.70;;;9.00;99.90;;;;;;5096820;28;20200;-82
2022/09/26 04:04:14;;;;;;;0.50;0.50;;;9.00;99.90;;;;;;5096640;28;20637;-82
2022/09/26 04:06:39;;;;;;;0.63;0.63;;;9.00;99.90;;;;;;5097415;28;20174;-82
2022/09/26 04:09:05;;;;;;;0.50;0.50;;;8.90;99.90;;;;;;5096212;28;20201;-82
2022/09/26 04:11:30;;;;;;;0.60;0.60;;;9.00;99.90;;;;;;5103914;28;20165;-79
2022/09/26 04:13:56;;;;;;;0.60;0.60;;;9.00;99.90;;;;;;5108379;28;20186;-81
2022/09/26 04:16:22;;;;;;;0.60;0.60;;;9.00;99.90;;;;;;5096189;28;20170;-83
2022/09/26 04:18:48;;;;;;;0.50;0.50;;;9.00;99.90;;;;;;5095519;28;20735;-81
2022/09/26 04:21:14;;;;;;;0.60;0.60;;;9.00;99.90;;;;;;5096407;28;20279;-80
2022/09/26 04:23:41;;;;;;;0.60;0.60;;;8.90;99.90;;;;;;5096056;28;20182;-81
2022/09/26 04:26:18;;;;;;;0.60;0.60;;;8.90;99.90;;;;;;5095347;28;20638;-81
2022/09/26 04:28:44;;;;;;;0.67;0.67;;;8.90;99.90;;;;;;5095460;28;20198;-81
2022/09/26 04:31:11;;;;;;;0.60;0.60;;;8.90;99.90;;;;;;5095191;28;20228;-80
2022/09/26 04:33:38;;;;;;;0.53;0.53;;;9.00;99.90;;;;;;5096085;28;20182;-81
2022/09/26 04:36:09;;;;;;;0.50;0.50;;;9.00;99.90;;;;;;5096207;28;20185;-81
2022/09/26 04:38:35;;;;;;;0.60;0.60;;;9.00;99.90;;;;;;5095487;28;20221;-81
2022/09/26 04:41:09;;;;;;;0.63;0.63;;;9.00;99.90;;;;;;5095485;28;20166;-80
2022/09/26 04:43:35;;;;;;;0.60;0.60;;;9.00;99.90;;;;;;5095767;28;20188;-80
2022/09/26 04:46:06;;;;;;;0.50;0.50;;;8.90;99.90;;;;;;5096185;28;20178;-80
2022/09/26 04:48:31;;;;;;;0.60;0.60;;;8.90;99.90;;;;;;5095913;28;20190;-79
2022/09/26 04:50:57;;;;;;;0.60;0.60;;;8.90;99.90;;;;;;5095548;28;20181;-81
2022/09/26 04:53:23;;;;;;;0.70;0.70;;;8.90;99.90;;;;;;5095623;28;20181;-80
2022/09/26 04:55:48;;;;;;;0.60;0.60;;;8.90;99.90;;;;;;5096193;28;20598;-80
2022/09/26 04:58:15;;;;;;;0.50;0.50;;;8.90;99.90;;;;;;5095397;28;20205;-81
2022/09/26 05:00:44;;;;;;;0.50;0.50;;;8.90;99.90;;;;;;5096621;28;20555;-79
2022/09/26 05:03:12;;;;;;;0.70;0.70;;;8.90;99.90;;;;;;5096914;28;20174;-79
2022/09/26 05:05:43;;;;;;;0.60;0.60;;;8.90;99.90;;;;;;5096055;28;20177;-78
2022/09/26 05:08:13;;;;;;;0.60;0.60;;;8.90;99.90;;;;;;5093881;28;20665;-80
2022/09/26 05:10:39;;;;;;;0.63;0.63;;;8.90;99.90;;;;;;5095974;28;20189;-81
2022/09/26 05:13:06;;;;;;;0.60;0.60;;;8.90;99.90;;;;;;5095017;28;20223;-79
2022/09/26 05:15:32;;;;;;;0.70;0.70;;;8.90;99.90;;;;;;5095451;28;20180;-79
2022/09/26 05:17:59;;;;;;;0.60;0.60;;;8.90;99.90;;;;;;5094347;28;20576;-79
2022/09/26 05:20:30;;;;;;;0.53;0.53;;;8.80;99.90;;;;;;5094507;28;20174;-78
2022/09/26 05:23:00;;;;;;;0.50;0.50;;;8.90;99.90;;;;;;5095431;28;20256;-78
2022/09/26 05:28:13;;;;;;;0.60;0.60;;;8.80;99.90;;;;;;5094911;28;20216;-80
2022/09/26 05:30:39;;;;;;;0.50;0.50;;;8.70;99.90;;;;;;5114679;28;20633;-80
2022/09/26 05:33:05;;;;;;;0.60;0.60;;;8.70;99.90;;;;;;5116318;28;20177;-80
2022/09/26 05:35:34;;;;;;;0.60;0.60;;;8.70;99.90;;;;;;5115297;28;20180;-80
2022/09/26 05:38:01;;;;;;;0.70;0.70;;;8.60;99.90;;;;;;5114976;28;20681;-80
2022/09/26 05:43:11;;;;;;;0.70;0.70;;;8.60;99.90;;;;;;5118902;28;20231;-79
2022/09/26 05:45:37;;;;;;;0.70;0.70;;;8.60;99.90;;;;;;5124725;28;20174;-78
2022/09/26 05:48:03;;;;;;;0.60;0.60;;;8.70;99.90;;;;;;5125144;28;20200;-78
2022/09/26 05:50:30;;;;;;;0.60;0.60;;;8.80;99.90;;;;;;5126561;28;20184;-78
2022/09/26 05:52:57;;;;;;;0.77;0.77;;;8.80;99.90;;;;;;5126038;28;20181;-78
2022/09/26 05:55:23;;;;;;;0.60;0.60;;;8.90;99.90;;;;;;5126177;28;20180;-78
2022/09/26 05:57:59;;;;;;;0.60;0.60;;;9.00;99.90;;;;;;5121892;28;20250;-78
2022/09/26 06:00:26;;;;;;;0.60;0.60;;;9.00;99.90;;;;;;5117526;28;20176;-80
2022/09/26 06:02:56;;;;;;;0.63;0.63;;;9.10;99.90;;;;;;5114670;28;20169;-80
2022/09/26 06:05:25;;;;;;;0.60;0.60;;;9.20;99.90;;;;;;5114211;28;20177;-80
2022/09/26 06:07:51;;;;;;;0.70;0.70;;;9.30;99.90;;;;;;5114181;28;20185;-80
2022/09/26 06:10:18;;;;;;;0.60;0.60;;;9.40;99.90;;;;;;5115055;28;20261;-80
2022/09/26 06:12:43;;;;;;;0.50;0.50;;;9.50;99.90;;;;;;5114624;28;20248;-80
2022/09/26 06:15:09;;;;;;;0.60;0.60;;;9.50;99.90;;;;;;5118336;28;20245;-79
2022/09/26 06:17:35;;;;;;;0.60;0.60;;;9.60;99.90;;;;;;5126439;28;20180;-78
2022/09/26 06:20:01;;;;;;;0.50;0.50;;;9.60;99.90;;;;;;5125973;28;20230;-78
2022/09/26 06:22:27;;;;;;;0.63;0.63;;;9.60;99.90;;;;;;5131603;27;20165;-83
2022/09/26 06:24:53;;;;;;;0.60;0.60;;;9.60;99.90;;;;;;5125355;28;20181;-79
2022/09/26 06:27:19;;;;;;;0.60;0.60;;;9.70;99.90;;;;;;5118576;22;20282;-77
2022/09/26 06:29:44;;;;;;;0.60;0.60;;;9.70;99.90;;;;;;5091938;28;20284;-77
2022/09/26 06:32:10;;;;;;;0.40;0.40;;;9.90;99.90;;;;;;5092719;28;20181;-76
2022/09/26 06:34:35;;;;;;;0.43;0.43;;;10.00;99.90;;;;;;5092357;28;20178;-76
2022/09/26 06:37:01;;;;;;;0.60;0.60;;;10.20;99.90;;;;;;5092247;28;20205;-77
2022/09/26 06:39:35;;;;;;;0.60;0.60;;;10.30;99.90;;;;;;5091730;28;20213;-77
2022/09/26 06:42:06;;;;;;;0.60;0.60;;;10.40;99.90;;;;;;5092070;28;20173;-76
2022/09/26 06:44:32;;;;;;;0.50;0.50;;;10.50;99.90;;;;;;5091768;28;20176;-75
2022/09/26 06:46:59;;;;;;;0.47;0.47;;;10.40;99.90;;;;;;5091511;28;20496;-75
2022/09/26 06:49:26;;;;;;;0.50;0.50;;;10.50;99.90;;;;;;5091351;28;20194;-75
2022/09/26 06:51:51;;;;;;;0.60;0.60;;;10.50;99.90;;;;;;5091728;28;20250;-75
2022/09/26 06:54:17;;;;;;;0.50;0.50;;;10.40;99.90;;;;;;5092757;28;20634;-75
2022/09/26 06:56:43;;;;;;;0.50;0.50;;;10.50;99.90;;;;;;5095835;28;20182;-75
2022/09/26 06:59:09;;;;;;;0.53;0.53;;;10.50;99.90;;;;;;5094909;28;20413;-75
2022/09/26 07:01:34;;;;;;;0.60;0.60;;;10.60;99.90;;;;;;5095672;28;20660;-75
2022/09/26 07:04:00;;;;;;;0.50;0.50;;;10.70;99.90;;;;;;5095565;28;20209;-75
2022/09/26 07:06:25;;;;;;;0.50;0.50;;;10.70;99.90;;;;;;5095802;28;20253;-76
2022/09/26 07:08:52;;;;;;;0.60;0.60;;;10.70;99.90;;;;;;5095205;28;20576;-75
2022/09/26 07:11:18;;;;;;;0.47;0.47;;;10.80;99.90;;;;;;5095275;28;20178;-75
2022/09/26 07:13:44;;;;;;;0.50;0.50;;;10.90;99.90;;;;;;5095277;28;20174;-75
2022/09/26 07:16:11;;;;;;;0.53;0.53;;;10.90;99.90;;;;;;5095565;28;20203;-76
2022/09/26 07:18:37;;;;;;;0.47;0.47;;;10.90;99.90;;;;;;5094700;28;20670;-76
2022/09/26 07:21:06;;;;;;;0.50;0.50;;;11.00;99.90;;;;;;5095552;28;20710;-75
2022/09/26 07:23:32;;;;;;;0.57;0.57;;;11.00;99.90;;;;;;5095540;28;20174;-76
2022/09/26 07:25:58;;;;;;;0.60;0.60;;;11.00;99.90;;;;;;5095155;28;20185;-75
2022/09/26 07:28:25;;;;;;;0.50;0.50;;;11.00;99.90;;;;;;5094546;28;20289;-75
2022/09/26 07:30:55;;;;;;;0.50;0.50;;;11.00;99.90;;;;;;5095295;28;20184;-75
2022/09/26 07:33:21;;;;;;;0.60;0.60;;;11.20;99.90;;;;;;5095230;28;20182;-76
2022/09/26 07:35:47;;;;;;;0.40;0.40;;;11.50;99.90;;;;;;5095249;28;20170;-75
2022/09/26 07:38:13;;;;;;;0.40;0.40;;;11.60;99.90;;;;;;5094501;28;20210;-76
2022/09/26 07:40:39;;;;;;;0.40;0.40;;;11.80;99.90;;;;;;5095696;28;20575;-75
2022/09/26 07:43:05;;;;;;;0.40;0.40;;;12.00;99.90;;;;;;5094950;28;20209;-75
2022/09/26 07:50:59;;;;;;;0.50;0.50;;;12.60;99.90;;;;;;5095057;28;20177;-76
2022/09/26 07:53:26;;;;;;;0.40;0.40;;;12.40;85.30;;;;;;5094784;28;20180;-76
2022/09/26 07:56:05;;;;;;;0.50;0.50;;;12.30;98.80;;;;;;5095075;28;20190;-76
2022/09/26 07:58:32;;;;;;;0.40;0.40;;;12.40;99.90;;;;;;5094768;28;20216;-75
2022/09/26 08:00:57;;;;;;;0.40;0.40;;;12.60;99.90;;;;;;5096169;28;20178;-75
2022/09/26 08:03:27;;;;;;;0.50;0.50;;;12.70;86.60;;;;;;5097045;28;20181;-76
2022/09/26 08:05:57;;;;;;;0.40;0.40;;;12.80;35.00;;;;;;5096683;28;20604;-75
2022/09/26 08:08:23;;;;;;;0.40;0.40;;;12.80;40.10;;;;;;5097589;28;20230;-75
2022/09/26 08:10:48;;;;;;;0.50;0.50;;;12.60;16.60;;;;;;5096868;28;20181;-75
2022/09/26 08:13:14;;;;;;;0.40;0.40;;;12.50;1.00;;;;;;5094268;28;20252;-75
2022/09/26 08:15:39;;;;;;;0.50;0.50;;;12.40;19.60;;;;;;5094270;28;20178;-76
2022/09/26 08:18:05;;;;;;;0.47;0.47;;;12.40;55.10;;;;;;5093654;28;20201;-76
2022/09/26 08:20:30;;;;;;;0.40;0.40;;;12.40;45.10;;;;;;5094097;28;20185;-76
2022/09/26 08:22:56;;;;;;;0.47;0.47;;;12.50;66.90;;;;;;5093992;28;20607;-77
2022/09/26 08:25:21;;;;;;;0.60;0.60;;;12.50;3.10;;;;;;5093918;28;20180;-76
2022/09/26 08:27:49;;;;;;;0.50;0.50;;;12.60;22.10;;;;;;5093398;28;20283;-76
2022/09/26 08:30:14;;;;;;;0.60;0.60;;;12.60;1.00;;;;;;5093927;28;20181;-76
2022/09/26 08:32:40;;;;;;;0.60;0.60;;;12.70;40.70;;;;;;5094197;28;20216;-76
2022/09/26 08:35:09;;;;;;;0.50;0.50;;;12.90;1.00;;;;;;5093855;28;20174;-76
2022/09/26 08:37:34;;;;;;;0.60;0.60;;;13.00;1.00;;;;;;5093310;28;20166;-76
2022/09/26 08:40:00;;;;;;;0.47;0.47;;;13.20;1.00;;;;;;5093726;28;20184;-77
2022/09/26 08:42:39;;;;;;;0.40;0.40;;;13.40;1.00;;;;;;5093778;28;20174;-76
2022/09/26 08:46:42;;;;;;;0.60;0.60;;;13.60;1.00;;;;;;5093855;28;20185;-76
2022/09/26 08:48:49;;;;;;;0.47;0.47;;;14.00;1.00;;;;;;5079293;28;20225;-77
2022/09/26 08:51:21;;;;;;;0.30;0.30;;;14.90;1.00;;;;;;5093493;28;20201;-76
2022/09/26 08:53:58;;;;;;;0.40;0.40;;;15.90;99.90;;;;;;5093215;28;20204;-77
2022/09/26 08:56:39;;;;;;;0.40;0.40;;;17.20;1.00;;;;;;5093381;28;20710;-77
2022/09/26 08:59:11;;;;;;;0.40;0.40;;;17.30;99.90;;;;;;5092720;28;20220;-76
2022/09/26 09:01:40;;;;;;;0.40;0.40;;;17.60;99.90;;;;;;5093254;28;20638;-77
2022/09/26 09:04:13;;;;;;;0.40;0.40;;;17.40;99.90;;;;;;5093159;28;20178;-76
2022/09/26 09:06:39;;;;;;;0.50;0.50;;;17.70;99.90;;;;;;5093330;28;20170;-77
2022/09/26 09:09:04;;;;;;;0.40;0.40;;;17.80;46.20;;;;;;5092556;28;20569;-77
2022/09/26 09:12:00;;;;;;;0.30;0.30;;;18.00;99.90;;;;;;5093014;28;20557;-77
2022/09/26 09:14:34;;;;;;;0.40;0.40;;;18.60;26.70;;;;;;5092917;28;20567;-76
2022/09/26 09:17:39;;;;;;;0.40;0.40;;;19.00;1.00;;;;;;5098306;28;20196;-82
2022/09/26 09:20:18;;;;;;;0.50;0.50;;;18.80;1.00;;;;;;5045468;28;20582;-77
2022/09/26 09:23:07;;;;;;;0.40;0.40;;;17.60;99.90;;;;;;5092826;28;20172;-76
2022/09/26 09:25:56;;;;;;;0.40;0.40;;;17.40;99.90;;;;;;5093023;28;20195;-75
2022/09/26 09:28:35;;;;;;;0.53;0.53;;;16.60;1.00;;;;;;5092174;28;20201;-76
2022/09/26 09:31:05;;;;;;;0.47;0.47;;;18.50;97.40;;;;;;5093144;28;20217;-75
2022/09/26 09:33:46;;;;;;;0.30;0.30;;;16.80;99.90;;;;;;5092516;28;20190;-76
2022/09/26 09:36:16;;;;;;;0.40;0.40;;;16.20;1.00;;;;;;5092758;28;20177;-75
2022/09/26 09:38:45;;;;;;;0.30;0.30;;;16.20;1.00;;;;;;5092034;28;20588;-75
2022/09/26 09:41:13;;;;;;;0.40;0.40;;;17.40;1.00;;;;;;5092453;28;20189;-75
2022/09/26 09:43:41;;;;;;;0.30;0.30;;;17.40;1.00;;;;;;5092301;28;20178;-76
2022/09/26 09:46:38;;;;;;;0.40;0.40;;;17.40;1.00;;;;;;5092222;28;20626;-75
2022/09/26 09:49:20;;;;;;;0.43;0.43;;;16.30;99.90;;;;;;5091588;28;20201;-76
2022/09/26 09:51:58;;;;;;;0.30;0.30;;;17.60;1.00;;;;;;5092411;28;20166;-75
2022/09/26 09:54:54;;;;;;;0.40;0.40;;;18.40;1.00;;;;;;5092039;28;20177;-76
2022/09/26 09:57:43;;;;;;;0.40;0.40;;;18.70;1.00;;;;;;5091899;28;20180;-77
2022/09/26 10:00:23;;;;;;;0.40;0.40;;;18.30;1.00;;;;;;5081436;28;20202;-75
2022/09/26 10:03:19;;;;;;;0.33;0.33;;;19.00;1.00;;;;;;5092301;28;20216;-75
2022/09/26 10:05:52;;;;;;;0.40;0.40;;;19.20;1.00;;;;;;5092179;28;20638;-77
2022/09/26 10:08:26;;;;;;;0.40;0.40;;;19.20;1.00;;;;;;5091412;28;20190;-75
2022/09/26 10:11:22;;;;;;;0.30;0.30;;;18.40;1.00;;;;;;5091870;28;20253;-75
2022/09/26 10:13:54;;;;;;;0.40;0.40;;;18.90;1.00;;;;;;5078329;28;20642;-76
2022/09/26 10:16:20;;;;;;;0.30;0.30;;;19.10;1.00;;;;;;5091987;28;20207;-75
2022/09/26 10:18:53;;;;;;;0.50;0.50;;;18.50;1.00;;;;;;5091196;28;20278;-76
2022/09/26 10:21:19;;;;;;;0.40;0.40;;;17.40;1.00;;;;;;5091623;28;20174;-76
2022/09/26 10:23:47;;;;;;;0.40;0.40;;;17.40;1.00;;;;;;5091892;28;20231;-76
2022/09/26 10:26:15;;;;;;;0.40;0.40;;;17.70;1.00;;;;;;5091628;28;20659;-75
2022/09/26 10:28:51;;;;;;;0.40;0.40;;;16.80;1.00;;;;;;5090797;28;20200;-75
2022/09/26 10:31:28;;;;;;;0.40;0.40;;;16.60;1.00;;;;;;5091795;28;20177;-76
2022/09/26 10:34:01;;;;;;;0.30;0.30;;;16.20;1.00;;;;;;5091600;28;20658;-75
2022/09/26 10:36:30;;;;;;;0.40;0.40;;;16.60;1.00;;;;;;5092103;28;20189;-76
2022/09/26 10:41:45;;;;;;;0.30;0.30;;;16.90;1.00;;;;;;5091667;28;20226;-76
2022/09/26 10:44:41;;;;;;;0.40;0.40;;;16.10;1.00;;;;;;5091440;28;20661;-75
2022/09/26 10:47:14;;;;;;;0.50;0.50;;;15.90;1.00;;;;;;5075128;28;20596;-75
2022/09/26 10:50:20;;;;;;;0.40;0.40;;;15.60;1.00;;;;;;5090954;28;20198;-76
2022/09/26 10:52:52;;;;;;;0.40;0.40;;;15.70;1.00;;;;;;5088684;28;20186;-75
2022/09/26 10:55:31;;;;;;;0.40;0.40;;;17.90;1.00;;;;;;5091621;28;20177;-76
2022/09/26 10:58:00;;;;;;;0.40;0.40;;;18.70;1.00;;;;;;5090597;28;20251;-75
2022/09/26 11:00:32;;;;;;;0.40;0.40;;;17.90;1.00;;;;;;5091402;28;20537;-76
2022/09/26 11:02:58;;;;;;;0.40;0.40;;;17.00;1.00;;;;;;5091324;28;20182;-75
2022/09/26 11:08:09;;;;;;;0.40;0.40;;;17.30;1.00;;;;;;5091023;28;20192;-76
2022/09/26 11:10:40;;;;;;;0.40;0.40;;;17.30;1.00;;;;;;5091205;28;20177;-75
2022/09/26 11:13:23;;;;;;;0.30;0.30;;;17.30;1.00;;;;;;5091351;28;20182;-76
2022/09/26 11:16:09;;;;;;;0.40;0.40;;;19.90;1.00;;;;;;5091120;28;20548;-76
2022/09/26 11:18:43;;;;;;;0.40;0.40;;;20.80;1.00;;;;;;5090768;28;20224;-79
2022/09/26 11:21:33;;;;;;;0.40;0.40;;;19.20;1.00;;;;;;5091194;28;20174;-76
2022/09/26 11:24:20;;;;;;;0.40;0.40;;;19.70;1.00;;;;;;5091041;28;20173;-75
2022/09/26 11:26:58;;;;;;;0.40;0.40;;;20.80;1.00;;;;;;5091181;28;20185;-75
2022/09/26 11:29:43;;;;;;;0.30;0.30;;;20.30;1.00;;;;;;5090550;28;20193;-76
2022/09/26 11:32:27;;;;;;;0.40;0.40;;;18.20;1.00;;;;;;5091069;28;20170;-75
2022/09/26 11:34:53;;;;;;;0.40;0.40;;;16.90;1.00;;;;;;5091089;28;20204;-74
2022/09/26 11:37:29;;;;;;;0.40;0.40;;;16.30;1.00;;;;;;5091054;28;20171;-76
2022/09/26 11:40:08;;;;;;;0.40;0.40;;;16.20;1.00;;;;;;5090854;28;20209;-76
2022/09/26 11:42:45;;;;;;;0.30;0.30;;;15.90;1.00;;;;;;5093709;28;20185;-75
2022/09/26 11:45:31;;;;;;;0.50;0.50;;;15.30;1.00;;;;;;5094836;28;20173;-75
2022/09/26 11:48:23;;;;;;;0.40;0.40;;;14.70;1.00;;;;;;5094093;28;20646;-75
2022/09/26 11:51:11;;;;;;;0.37;0.37;;;14.20;1.00;;;;;;5094592;28;20170;-75
2022/09/26 11:54:16;;;;;;;0.50;0.50;;;14.80;99.90;;;;;;5094609;28;20257;-76
2022/09/26 11:57:00;;;;;;;0.53;0.53;;;15.40;1.00;;;;;;5094564;28;20170;-75
2022/09/26 11:59:44;;;;;;;0.50;0.50;;;17.00;1.00;;;;;;5093600;28;20566;-76
2022/09/26 12:02:38;;;;;;;0.40;0.40;;;19.20;1.00;;;;;;5094513;28;20193;-75
2022/09/26 12:05:25;;;;;;;0.50;0.50;;;19.90;1.00;;;;;;5094297;28;20530;-75
2022/09/26 12:08:05;;;;;;;0.40;0.40;;;20.40;1.00;;;;;;5093601;28;20722;-76
2022/09/26 12:10:36;;;;;;;0.40;0.40;;;20.10;1.00;;;;;;5093860;28;20657;-75
2022/09/26 12:13:28;;;;;;;0.30;0.30;;;19.10;1.00;;;;;;5094163;28;20243;-75
2022/09/26 12:16:13;;;;;;;0.37;0.37;;;17.90;1.00;;;;;;5094130;28;20178;-75
2022/09/26 12:18:39;;;;;;;0.30;0.30;;;17.00;1.00;;;;;;5093650;28;20217;-75
2022/09/26 12:21:18;;;;;;;0.37;0.37;;;19.70;1.00;;;;;;5094195;28;20261;-75
2022/09/26 12:23:51;;;;;;;0.40;0.40;;;19.80;1.00;;;;;;5094105;28;20178;-75
2022/09/26 12:26:43;;;;;;;0.50;0.50;;;21.00;1.00;;;;;;5200502;22;20188;-81
2022/09/26 12:29:37;;;;;;;0.40;0.40;;;20.70;1.00;;;;;;5083998;28;20237;-83
2022/09/26 12:32:36;;;;;;;0.40;0.40;;;21.80;1.00;;;;;;5078973;28;20174;-84
2022/09/26 12:35:17;;;;;;;0.40;0.40;;;21.80;1.00;;;;;;5082351;28;20178;-86
2022/09/26 12:38:04;;;;;;;0.30;0.30;;;20.50;1.00;;;;;;5082272;28;21084;-82
2022/09/26 12:40:57;;;;;;;0.40;0.40;;;20.60;1.00;;;;;;5081259;28;20182;-82
2022/09/26 12:43:34;;;;;;;0.30;0.30;;;20.60;1.00;;;;;;5078720;28;20232;-83
2022/09/26 12:46:08;;;;;;;0.40;0.40;;;20.10;1.00;;;;;;5080458;28;20174;-82
2022/09/26 12:48:43;;;;;;;0.30;0.30;;;18.60;1.00;;;;;;5077712;28;20183;-81
2022/09/26 12:51:31;;;;;;;0.30;0.30;;;17.80;1.00;;;;;;5077268;28;20174;-82
2022/09/26 12:54:18;;;;;;;0.30;0.30;;;17.40;1.00;;;;;;5079586;28;20631;-80
2022/09/26 12:56:59;;;;;;;0.30;0.30;;;16.70;1.00;;;;;;5078530;28;20239;-82
2022/09/26 12:59:35;;;;;;;0.30;0.30;;;16.40;1.00;;;;;;5080351;28;20685;-81
2022/09/26 13:02:20;;;;;;;0.40;0.40;;;16.30;1.00;;;;;;5091431;28;20180;-82
2022/09/26 13:05:10;;;;;;;0.40;0.40;;;15.80;1.00;;;;;;5092312;28;20190;-80
2022/09/26 13:08:07;;;;;;;0.50;0.50;;;15.70;1.00;;;;;;5093125;28;20194;-79
2022/09/26 13:11:09;;;;;;;0.40;0.40;;;15.60;1.00;;;;;;5087257;28;20711;-80
2022/09/26 13:13:53;;;;;;;0.50;0.50;;;15.40;1.00;;;;;;5086767;28;20181;-79
2022/09/26 13:16:55;;;;;;;0.40;0.40;;;15.30;1.00;;;;;;5085777;28;20178;-80
2022/09/26 13:19:34;;;;;;;0.40;0.40;;;15.40;1.00;;;;;;5086663;28;20201;-79
2022/09/26 13:22:13;;;;;;;0.40;0.40;;;15.20;1.00;;;;;;5085141;28;20185;-80
2022/09/26 13:25:19;;;;;;;0.50;0.50;;;14.70;1.00;;;;;;5085246;28;20234;-81
2022/09/26 13:27:54;;;;;;;0.60;0.60;;;14.40;1.00;;;;;;5049487;28;20221;-79
2022/09/26 13:30:26;;;;;;;0.40;0.40;;;14.10;1.00;;;;;;5086077;28;20166;-80
2022/09/26 13:32:55;;;;;;;0.40;0.40;;;13.70;99.90;;;;;;5085622;28;20175;-79
2022/09/26 13:35:24;;;;;;;0.43;0.43;;;13.50;99.90;;;;;;5083493;28;20178;-80
2022/09/26 13:38:06;;;;;;;0.40;0.40;;;13.40;1.00;;;;;;5088531;28;20698;-79
2022/09/26 13:41:00;;;;;;;0.40;0.40;;;13.50;1.00;;;;;;5094720;28;20222;-79
2022/09/26 13:43:33;;;;;;;0.53;0.53;;;13.60;1.00;;;;;;5093688;28;20186;-81
2022/09/26 13:46:48;;;;;;;0.60;0.60;;;13.60;99.90;;;;;;5085857;28;20179;-79
2022/09/26 13:49:28;;;;;;;0.60;0.60;;;13.90;66.70;;;;;;5079331;28;20194;-81